Time;durP1;ratioP1;P1;durP2;ratioP2;P2;SDS_P1;SDS_P2;PMS_P1;PMS_P2;Temp;Humidity;BMP_temperature;BMP_pressure;BME280_temperature;BME280_humidity;BME280_pressure;Samples;Min_cycle;Max_cycle;Signal;HPM_P1;HPM_P2
2022/02/20 00:01:32;;;;;;;5.05;1.10;;;6.70;97.80;;;;;;5040824;28;20533;-81
2022/02/20 00:04:02;;;;;;;8.07;1.63;;;6.60;98.20;;;;;;5050164;28;20048;-81
2022/02/20 00:06:28;;;;;;;4.47;1.08;;;6.60;98.90;;;;;;5050093;28;20104;-82
2022/02/20 00:08:54;;;;;;;7.20;1.98;;;6.50;99.40;;;;;;5047429;28;20028;-80
2022/02/20 00:11:19;;;;;;;6.10;1.15;;;6.50;99.90;;;;;;5057534;28;20037;-81
2022/02/20 00:13:45;;;;;;;1.67;0.80;;;6.40;99.90;;;;;;5051943;28;20025;-82
2022/02/20 00:16:11;;;;;;;4.65;1.05;;;6.40;99.90;;;;;;5034626;28;20041;-80
2022/02/20 00:18:37;;;;;;;3.95;0.90;;;6.40;99.90;;;;;;5045589;28;20104;-81
2022/02/20 00:21:02;;;;;;;2.83;0.93;;;6.30;99.90;;;;;;5040423;28;20076;-80
2022/02/20 00:23:28;;;;;;;3.97;2.03;;;6.30;99.90;;;;;;5053782;28;20021;-80
2022/02/20 00:25:54;;;;;;;2.72;1.23;;;6.30;99.90;;;;;;5037721;28;20022;-81
2022/02/20 00:28:20;;;;;;;3.97;1.27;;;6.30;99.90;;;;;;5052347;28;20017;-83
2022/02/20 00:30:45;;;;;;;3.75;1.08;;;6.10;99.90;;;;;;5042231;28;20040;-83
2022/02/20 00:33:12;;;;;;;3.03;1.02;;;6.20;99.90;;;;;;5041164;28;20029;-80
2022/02/20 00:35:38;;;;;;;3.83;1.08;;;6.10;99.90;;;;;;5033709;28;20032;-81
2022/02/20 00:38:05;;;;;;;6.07;1.58;;;6.00;99.90;;;;;;5051147;28;20109;-81
2022/02/20 00:40:32;;;;;;;4.00;1.10;;;5.90;99.90;;;;;;5042997;28;20090;-82
2022/02/20 00:42:58;;;;;;;6.18;1.98;;;6.00;99.90;;;;;;5044740;28;20049;-80
2022/02/20 00:45:24;;;;;;;4.55;0.95;;;5.90;99.90;;;;;;5044115;28;20431;-80
2022/02/20 00:47:50;;;;;;;4.05;1.20;;;5.80;99.90;;;;;;5048414;28;20025;-80
2022/02/20 00:50:15;;;;;;;3.88;0.98;;;5.90;99.90;;;;;;5055376;28;20021;-81
2022/02/20 00:52:41;;;;;;;2.47;0.93;;;5.90;99.90;;;;;;5035005;28;20505;-80
2022/02/20 00:55:08;;;;;;;4.97;1.27;;;5.90;99.90;;;;;;5026454;28;20026;-83
2022/02/20 00:57:34;;;;;;;3.35;0.98;;;5.80;99.90;;;;;;5036241;28;20021;-84
2022/02/20 00:59:59;;;;;;;6.18;1.20;;;5.90;99.90;;;;;;5035672;28;20033;-83
2022/02/20 01:02:25;;;;;;;3.10;1.00;;;5.90;99.90;;;;;;5035723;28;20048;-83
2022/02/20 01:04:52;;;;;;;6.80;1.10;;;5.90;99.90;;;;;;5030964;28;20018;-81
2022/02/20 01:07:21;;;;;;;4.07;1.00;;;5.90;99.90;;;;;;5025208;28;20026;-79
2022/02/20 01:09:47;;;;;;;5.82;1.77;;;5.90;99.90;;;;;;5028840;28;20029;-79
2022/02/20 01:12:13;;;;;;;4.35;0.85;;;5.90;99.90;;;;;;5031260;28;20029;-78
2022/02/20 01:14:39;;;;;;;5.95;1.15;;;5.80;99.90;;;;;;5031198;28;20029;-82
2022/02/20 01:17:04;;;;;;;3.72;1.08;;;5.80;99.90;;;;;;5035379;28;20099;-81
2022/02/20 01:19:30;;;;;;;5.63;1.88;;;5.80;99.90;;;;;;5029403;28;20032;-80
2022/02/20 01:21:56;;;;;;;4.28;1.25;;;5.80;99.90;;;;;;5031685;28;20022;-81
2022/02/20 01:24:21;;;;;;;4.47;1.23;;;5.80;99.90;;;;;;5033420;28;20025;-82
2022/02/20 01:26:47;;;;;;;2.67;0.90;;;5.90;99.90;;;;;;5034086;28;20130;-86
2022/02/20 01:29:13;;;;;;;5.38;1.15;;;5.80;99.90;;;;;;5039106;28;20030;-85
2022/02/20 01:31:38;;;;;;;3.55;0.90;;;5.80;99.90;;;;;;5043901;28;20036;-82
2022/02/20 01:34:04;;;;;;;3.70;0.98;;;5.80;99.90;;;;;;5043321;28;20101;-81
2022/02/20 01:36:29;;;;;;;4.53;1.00;;;5.80;99.90;;;;;;5034654;28;20063;-82
2022/02/20 01:38:55;;;;;;;3.97;1.35;;;5.80;99.90;;;;;;5029963;28;20032;-82
2022/02/20 01:41:21;;;;;;;1.63;0.88;;;5.80;99.90;;;;;;5043645;28;20117;-82
2022/02/20 01:43:51;;;;;;;7.32;1.23;;;5.90;99.90;;;;;;5033223;28;20029;-82
2022/02/20 01:46:17;;;;;;;2.17;0.93;;;5.90;99.90;;;;;;5031850;28;20022;-81
2022/02/20 01:48:42;;;;;;;5.32;1.17;;;5.80;99.90;;;;;;5027114;28;20280;-80
2022/02/20 01:51:08;;;;;;;4.65;0.90;;;5.80;99.90;;;;;;5031561;28;20106;-81
2022/02/20 01:53:34;;;;;;;5.82;0.98;;;5.80;99.90;;;;;;5023137;28;20026;-82
2022/02/20 01:56:01;;;;;;;5.45;1.40;;;5.90;99.90;;;;;;5029084;28;20089;-81
2022/02/20 01:58:27;;;;;;;7.22;1.05;;;5.90;99.90;;;;;;5039854;28;20041;-80
2022/02/20 02:00:53;;;;;;;3.67;1.20;;;5.90;99.90;;;;;;5033404;28;20025;-80
2022/02/20 02:03:20;;;;;;;7.38;1.42;;;5.90;99.90;;;;;;5034798;28;20048;-82
2022/02/20 02:05:46;;;;;;;3.25;1.00;;;6.00;99.90;;;;;;5031087;28;20029;-84
2022/02/20 02:08:12;;;;;;;8.43;1.35;;;6.00;99.90;;;;;;5031524;28;20052;-82
2022/02/20 02:10:38;;;;;;;5.40;0.93;;;6.00;99.90;;;;;;5029010;28;20490;-82
2022/02/20 02:13:04;;;;;;;3.00;0.75;;;6.00;99.90;;;;;;5030576;28;20036;-83
2022/02/20 02:15:29;;;;;;;4.05;1.83;;;6.00;99.90;;;;;;5030964;28;20050;-83
2022/02/20 02:17:55;;;;;;;4.13;0.90;;;6.00;99.90;;;;;;5032529;28;20076;-83
2022/02/20 02:20:21;;;;;;;7.47;1.55;;;6.00;99.90;;;;;;5031946;28;20028;-82
2022/02/20 02:22:46;;;;;;;3.40;1.00;;;6.00;99.90;;;;;;5038427;28;20058;-82
2022/02/20 02:25:12;;;;;;;5.68;1.02;;;6.10;99.90;;;;;;5029939;28;20489;-82
2022/02/20 02:27:38;;;;;;;4.43;1.50;;;6.10;99.90;;;;;;5022580;28;20022;-76
2022/02/20 02:30:06;;;;;;;4.40;1.10;;;6.10;99.90;;;;;;5028755;28;20022;-77
2022/02/20 02:32:31;;;;;;;6.28;1.63;;;6.10;99.90;;;;;;5030644;28;20116;-78
2022/02/20 02:34:57;;;;;;;4.15;1.00;;;6.10;99.90;;;;;;5033196;28;20480;-77
2022/02/20 02:37:22;;;;;;;4.38;1.50;;;6.20;99.90;;;;;;5045768;28;20504;-79
2022/02/20 02:39:48;;;;;;;4.82;1.08;;;6.30;99.90;;;;;;5027651;28;20057;-79
2022/02/20 02:42:14;;;;;;;4.32;1.60;;;6.20;99.90;;;;;;5025698;28;20091;-76
2022/02/20 02:44:39;;;;;;;4.28;0.90;;;6.20;99.90;;;;;;5023952;28;20440;-76
2022/02/20 02:47:05;;;;;;;2.40;0.75;;;6.30;99.90;;;;;;5026541;28;20018;-76
2022/02/20 02:49:31;;;;;;;2.47;1.00;;;6.30;99.90;;;;;;5026175;28;20032;-76
2022/02/20 02:51:56;;;;;;;4.70;1.20;;;6.20;99.90;;;;;;5027098;28;20165;-76
2022/02/20 02:54:22;;;;;;;2.95;1.00;;;6.20;99.90;;;;;;5027000;28;20038;-75
2022/02/20 02:56:49;;;;;;;4.75;1.25;;;6.30;99.90;;;;;;5029333;28;20018;-77
2022/02/20 02:59:16;;;;;;;5.97;1.63;;;6.30;99.90;;;;;;5026293;28;20156;-76
2022/02/20 03:01:44;;;;;;;4.65;1.05;;;6.30;99.90;;;;;;5027692;28;20026;-77
2022/02/20 03:04:10;;;;;;;3.88;1.08;;;6.30;99.90;;;;;;5035042;28;20018;-76
2022/02/20 03:06:35;;;;;;;3.80;0.82;;;6.30;99.90;;;;;;5045635;28;20024;-76
2022/02/20 03:09:03;;;;;;;2.67;0.90;;;6.30;99.90;;;;;;5029054;28;20497;-78
2022/02/20 03:11:28;;;;;;;2.78;0.85;;;6.30;99.90;;;;;;5033420;28;20014;-77
2022/02/20 03:13:54;;;;;;;1.10;0.80;;;6.30;99.90;;;;;;5033459;28;20083;-77
2022/02/20 03:16:19;;;;;;;3.72;1.20;;;6.30;99.90;;;;;;5035707;28;20032;-76
2022/02/20 03:18:45;;;;;;;3.35;0.90;;;6.40;99.90;;;;;;5040283;28;20083;-76
2022/02/20 03:21:10;;;;;;;1.75;1.15;;;6.40;99.90;;;;;;5032077;28;20033;-78
2022/02/20 03:23:36;;;;;;;4.65;1.08;;;6.30;99.90;;;;;;5027642;28;20046;-76
2022/02/20 03:26:02;;;;;;;4.07;1.08;;;6.40;99.90;;;;;;5031692;28;20060;-76
2022/02/20 03:28:28;;;;;;;3.67;0.70;;;6.40;99.90;;;;;;5047239;28;20028;-75
2022/02/20 03:30:54;;;;;;;3.30;0.93;;;6.40;99.90;;;;;;5024242;28;20494;-75
2022/02/20 03:33:21;;;;;;;2.15;0.80;;;6.40;99.90;;;;;;5029394;28;20096;-78
2022/02/20 03:35:47;;;;;;;5.82;2.38;;;6.40;99.90;;;;;;5027990;28;20026;-77
2022/02/20 03:38:12;;;;;;;4.53;1.30;;;6.40;99.90;;;;;;5019980;28;20029;-77
2022/02/20 03:40:38;;;;;;;2.67;0.70;;;6.50;99.90;;;;;;5032891;28;20079;-76
2022/02/20 03:43:04;;;;;;;3.05;0.82;;;6.40;99.90;;;;;;5027499;28;20017;-76
2022/02/20 03:45:31;;;;;;;5.32;0.70;;;6.30;99.90;;;;;;5027425;28;20017;-77
2022/02/20 03:47:57;;;;;;;5.57;1.02;;;6.40;99.90;;;;;;5030637;28;20025;-76
2022/02/20 03:50:23;;;;;;;2.85;0.85;;;6.40;99.90;;;;;;5038706;28;20032;-77
2022/02/20 03:52:49;;;;;;;5.45;1.10;;;6.40;99.90;;;;;;5041255;28;20018;-76
2022/02/20 03:55:17;;;;;;;1.73;0.68;;;6.40;99.90;;;;;;5057054;28;20030;-76
2022/02/20 03:57:42;;;;;;;3.03;0.80;;;6.40;99.90;;;;;;5048934;28;20056;-77
2022/02/20 04:00:18;;;;;;;4.65;0.90;;;6.40;99.90;;;;;;5053502;28;20077;-76
2022/02/20 04:02:44;;;;;;;2.83;0.70;;;6.30;99.90;;;;;;5050284;28;20037;-76
2022/02/20 04:05:12;;;;;;;2.30;0.90;;;6.20;99.90;;;;;;5048393;28;20053;-75
2022/02/20 04:07:37;;;;;;;2.25;0.75;;;6.30;99.90;;;;;;5057288;28;20009;-76
2022/02/20 04:10:05;;;;;;;4.97;0.80;;;6.30;99.90;;;;;;5055686;28;20090;-76
2022/02/20 04:12:31;;;;;;;2.60;0.70;;;6.30;99.90;;;;;;5050789;28;20022;-75
2022/02/20 04:14:57;;;;;;;1.80;0.70;;;6.20;99.90;;;;;;5056482;28;20016;-76
2022/02/20 04:17:24;;;;;;;2.65;0.73;;;6.20;99.90;;;;;;5043608;28;20052;-76
2022/02/20 04:19:51;;;;;;;3.35;0.63;;;6.20;99.90;;;;;;5045529;28;20429;-75
2022/02/20 04:22:17;;;;;;;3.55;1.15;;;6.20;99.90;;;;;;5043534;28;20038;-78
2022/02/20 04:24:43;;;;;;;3.08;0.88;;;6.20;99.90;;;;;;5049159;28;20064;-76
2022/02/20 04:27:10;;;;;;;2.17;0.70;;;6.20;99.90;;;;;;5049177;28;20081;-76
2022/02/20 04:29:35;;;;;;;2.08;0.50;;;6.20;99.90;;;;;;5052234;28;20012;-76
2022/02/20 04:32:02;;;;;;;1.27;0.70;;;6.20;99.90;;;;;;5041537;28;20033;-75
2022/02/20 04:34:27;;;;;;;1.20;0.50;;;6.20;99.90;;;;;;5054162;28;20022;-76
2022/02/20 04:36:53;;;;;;;1.15;0.50;;;6.30;99.90;;;;;;5054156;28;20040;-76
2022/02/20 04:39:19;;;;;;;1.20;0.47;;;6.30;99.90;;;;;;5047173;28;20052;-77
2022/02/20 04:41:45;;;;;;;4.10;0.50;;;6.20;99.90;;;;;;5050245;28;20025;-76
2022/02/20 04:44:11;;;;;;;4.45;0.90;;;6.20;99.90;;;;;;5042721;28;20037;-77
2022/02/20 04:46:36;;;;;;;1.77;0.45;;;6.20;99.90;;;;;;5042972;28;20085;-75
2022/02/20 04:49:04;;;;;;;2.53;0.38;;;6.20;99.90;;;;;;5035003;28;20397;-76
2022/02/20 04:51:30;;;;;;;2.25;0.50;;;6.20;99.90;;;;;;5040658;28;20053;-75
2022/02/20 04:53:56;;;;;;;1.42;0.60;;;6.20;99.90;;;;;;5033560;28;20029;-75
2022/02/20 04:56:22;;;;;;;0.55;0.40;;;6.20;99.90;;;;;;5025771;28;20105;-77
2022/02/20 04:58:47;;;;;;;4.68;0.50;;;6.20;99.90;;;;;;5026537;28;20505;-77
2022/02/20 05:01:13;;;;;;;2.40;0.70;;;6.20;99.90;;;;;;5022788;28;20033;-76
2022/02/20 05:03:38;;;;;;;3.47;1.65;;;6.10;99.90;;;;;;5033435;28;20025;-77
2022/02/20 05:06:04;;;;;;;0.60;0.40;;;6.10;99.90;;;;;;5026232;28;20032;-74
2022/02/20 05:08:29;;;;;;;2.90;0.75;;;6.10;99.90;;;;;;5024195;28;20076;-76
2022/02/20 05:10:55;;;;;;;3.63;0.60;;;6.10;99.90;;;;;;5030337;28;20475;-76
2022/02/20 05:13:20;;;;;;;2.45;0.50;;;6.10;99.90;;;;;;5023838;28;20029;-77
2022/02/20 05:15:49;;;;;;;0.82;0.50;;;6.00;99.90;;;;;;5026372;28;20551;-77
2022/02/20 05:18:15;;;;;;;1.27;0.60;;;6.00;99.90;;;;;;5025440;28;20021;-78
2022/02/20 05:20:42;;;;;;;2.17;0.55;;;5.90;99.90;;;;;;5026083;28;20440;-76
2022/02/20 05:23:08;;;;;;;1.17;0.63;;;6.00;99.90;;;;;;5026778;28;20026;-78
2022/02/20 05:25:34;;;;;;;2.55;0.70;;;6.00;99.90;;;;;;5032513;28;20059;-75
2022/02/20 05:27:59;;;;;;;2.42;0.70;;;6.00;99.90;;;;;;5027375;28;20053;-76
2022/02/20 05:30:25;;;;;;;4.13;1.08;;;6.00;99.90;;;;;;5020861;28;20479;-76
2022/02/20 05:32:51;;;;;;;2.08;0.60;;;6.00;99.90;;;;;;5031930;28;20549;-76
2022/02/20 05:35:16;;;;;;;0.50;0.32;;;6.00;99.90;;;;;;5022736;28;20482;-78
2022/02/20 05:37:48;;;;;;;3.33;0.60;;;6.00;99.90;;;;;;5018716;28;20022;-75
2022/02/20 05:40:16;;;;;;;0.80;0.43;;;6.00;99.90;;;;;;5030690;28;20187;-75
2022/02/20 05:42:42;;;;;;;1.95;0.50;;;5.90;99.90;;;;;;5028884;28;20025;-76
2022/02/20 05:45:08;;;;;;;1.42;0.47;;;5.90;99.90;;;;;;5026696;28;20026;-76
2022/02/20 05:47:34;;;;;;;2.85;0.93;;;5.90;99.90;;;;;;5026187;28;20026;-76
2022/02/20 05:50:00;;;;;;;2.25;0.65;;;5.90;99.90;;;;;;5027043;28;20034;-75
2022/02/20 05:52:27;;;;;;;3.00;0.57;;;5.80;99.90;;;;;;5023729;28;20025;-77
2022/02/20 05:54:52;;;;;;;2.08;0.73;;;5.90;99.90;;;;;;5030668;28;20105;-77
2022/02/20 05:57:18;;;;;;;1.33;0.68;;;5.90;99.90;;;;;;5025979;28;20057;-75
2022/02/20 05:59:43;;;;;;;2.47;0.60;;;5.90;99.90;;;;;;5025916;28;20029;-76
2022/02/20 06:02:09;;;;;;;2.22;0.68;;;5.90;99.90;;;;;;5026728;28;20460;-76
2022/02/20 06:04:34;;;;;;;3.13;0.70;;;5.90;99.90;;;;;;5026945;28;20022;-77
2022/02/20 06:07:03;;;;;;;1.85;0.70;;;5.90;99.90;;;;;;5022367;28;20026;-76
2022/02/20 06:09:29;;;;;;;5.18;0.73;;;5.90;99.90;;;;;;5019006;28;20494;-76
2022/02/20 06:11:55;;;;;;;2.53;1.98;;;6.00;99.90;;;;;;5019671;28;20394;-76
2022/02/20 06:14:20;;;;;;;1.30;0.50;;;5.90;99.90;;;;;;5022258;28;20018;-77
2022/02/20 06:16:46;;;;;;;1.15;0.40;;;6.00;99.90;;;;;;5028494;28;20104;-76
2022/02/20 06:19:11;;;;;;;1.90;0.40;;;6.10;99.90;;;;;;5024355;28;20030;-78
2022/02/20 06:21:37;;;;;;;3.35;0.95;;;6.10;99.90;;;;;;5029681;28;20025;-77
2022/02/20 06:24:03;;;;;;;5.05;1.05;;;6.10;99.90;;;;;;5029713;28;20025;-77
2022/02/20 06:26:28;;;;;;;1.55;0.70;;;6.10;99.90;;;;;;5023518;28;20029;-77
2022/02/20 06:28:54;;;;;;;1.48;0.55;;;6.20;99.90;;;;;;5022438;28;20538;-76
2022/02/20 06:31:19;;;;;;;0.77;0.50;;;6.20;99.90;;;;;;5024082;28;20435;-77
2022/02/20 06:33:47;;;;;;;0.85;0.60;;;6.30;99.90;;;;;;5034615;28;20420;-76
2022/02/20 06:36:13;;;;;;;1.30;0.60;;;6.30;99.90;;;;;;5026401;28;20030;-77
2022/02/20 06:38:39;;;;;;;0.82;0.50;;;6.30;99.90;;;;;;5028435;28;20044;-76
2022/02/20 06:41:04;;;;;;;1.50;0.50;;;6.30;99.90;;;;;;5018064;28;20029;-77
2022/02/20 06:43:30;;;;;;;0.90;0.47;;;6.30;99.90;;;;;;5029996;28;20029;-77
2022/02/20 06:45:55;;;;;;;0.80;0.40;;;6.40;99.90;;;;;;5033786;28;20032;-79
2022/02/20 06:48:22;;;;;;;0.95;0.30;;;6.40;99.90;;;;;;5030418;28;20468;-76
2022/02/20 06:50:48;;;;;;;0.70;0.40;;;6.40;99.90;;;;;;5020934;28;20067;-77
2022/02/20 06:53:13;;;;;;;0.82;0.55;;;6.40;99.90;;;;;;5031358;28;20440;-76
2022/02/20 06:55:39;;;;;;;2.33;0.30;;;6.40;99.90;;;;;;5031879;28;20045;-76
2022/02/20 06:58:04;;;;;;;1.40;0.40;;;6.50;99.90;;;;;;5025491;28;20574;-76
2022/02/20 07:00:30;;;;;;;0.93;0.40;;;6.60;99.90;;;;;;5029853;28;20026;-76
2022/02/20 07:02:56;;;;;;;1.83;0.50;;;6.50;99.90;;;;;;5028121;28;20484;-76
2022/02/20 07:05:22;;;;;;;0.63;0.30;;;6.60;99.90;;;;;;5030687;28;20025;-77
2022/02/20 07:07:47;;;;;;;1.13;0.50;;;6.50;99.90;;;;;;5028465;28;20026;-75
2022/02/20 07:10:13;;;;;;;0.73;0.40;;;6.50;99.90;;;;;;5021901;28;20029;-77
2022/02/20 07:12:38;;;;;;;1.52;0.45;;;6.50;99.90;;;;;;5031140;28;20058;-77
2022/02/20 07:15:05;;;;;;;1.40;0.57;;;6.60;99.90;;;;;;5024969;28;20029;-76
2022/02/20 07:17:31;;;;;;;1.45;0.50;;;6.60;99.90;;;;;;5022959;28;20040;-77
2022/02/20 07:19:58;;;;;;;0.77;0.40;;;6.60;99.90;;;;;;5029679;28;20026;-76
2022/02/20 07:22:24;;;;;;;2.35;0.40;;;6.70;99.90;;;;;;5025891;28;20400;-77
2022/02/20 07:24:50;;;;;;;1.75;0.30;;;6.70;99.90;;;;;;5024625;28;20022;-76
2022/02/20 07:27:15;;;;;;;0.32;0.30;;;6.70;99.90;;;;;;5022095;28;20029;-77
2022/02/20 07:29:41;;;;;;;3.10;0.50;;;6.70;99.90;;;;;;5040471;28;20039;-78
2022/02/20 07:32:07;;;;;;;1.67;0.45;;;6.70;99.90;;;;;;5034970;28;20033;-78
2022/02/20 07:34:34;;;;;;;1.40;0.40;;;6.80;99.90;;;;;;5028230;28;20025;-77
2022/02/20 07:36:59;;;;;;;1.17;0.60;;;6.80;99.90;;;;;;5025335;28;20029;-78
2022/02/20 07:39:25;;;;;;;1.88;0.70;;;6.80;99.90;;;;;;5031555;28;20029;-78
2022/02/20 07:41:50;;;;;;;1.38;0.60;;;6.80;99.90;;;;;;5026074;28;20053;-77
2022/02/20 07:44:16;;;;;;;1.63;0.40;;;6.90;99.90;;;;;;5030388;28;20551;-75
2022/02/20 07:46:42;;;;;;;0.93;0.38;;;6.90;99.90;;;;;;5028096;28;20029;-78
2022/02/20 07:49:07;;;;;;;0.82;0.30;;;7.00;99.90;;;;;;5030578;28;20071;-77
2022/02/20 07:51:33;;;;;;;1.25;0.50;;;7.00;99.90;;;;;;5036092;28;20025;-77
2022/02/20 07:53:59;;;;;;;0.80;0.40;;;7.00;99.90;;;;;;5020691;28;20042;-77
2022/02/20 07:56:24;;;;;;;2.95;0.40;;;7.10;99.90;;;;;;5037211;28;20026;-76
2022/02/20 07:58:50;;;;;;;0.80;0.40;;;7.10;99.90;;;;;;5029536;28;20044;-76
2022/02/20 08:01:16;;;;;;;1.52;0.50;;;7.20;99.90;;;;;;5032137;28;20029;-75
2022/02/20 08:03:42;;;;;;;1.33;0.60;;;7.20;99.90;;;;;;5027865;28;20409;-77
2022/02/20 08:06:07;;;;;;;1.60;0.40;;;7.30;99.90;;;;;;5030420;28;20021;-76
2022/02/20 08:08:33;;;;;;;3.58;0.70;;;7.40;99.90;;;;;;5027454;28;20021;-77
2022/02/20 08:11:00;;;;;;;1.00;0.30;;;7.40;99.90;;;;;;5025671;28;20022;-77
2022/02/20 08:13:26;;;;;;;0.98;0.50;;;7.40;99.90;;;;;;5031608;28;20029;-76
2022/02/20 08:15:52;;;;;;;0.80;0.52;;;7.50;99.90;;;;;;5033466;28;20088;-78
2022/02/20 08:18:18;;;;;;;0.70;0.63;;;7.60;99.90;;;;;;5028780;28;20033;-78
2022/02/20 08:20:47;;;;;;;1.83;0.70;;;7.60;99.90;;;;;;5026847;28;20033;-77
2022/02/20 08:23:14;;;;;;;2.80;0.45;;;7.70;99.90;;;;;;5029218;28;20026;-77
2022/02/20 08:25:40;;;;;;;1.75;0.50;;;7.70;99.90;;;;;;5027293;28;20109;-77
2022/02/20 08:28:06;;;;;;;0.88;0.68;;;7.80;99.90;;;;;;5029989;28;20026;-77
2022/02/20 08:30:32;;;;;;;3.78;1.02;;;7.90;99.90;;;;;;5032188;28;20585;-76
2022/02/20 08:32:57;;;;;;;1.75;0.70;;;8.10;99.90;;;;;;5031283;28;20069;-79
2022/02/20 08:35:23;;;;;;;2.15;0.68;;;8.20;99.90;;;;;;5033984;28;20030;-78
2022/02/20 08:37:48;;;;;;;1.23;0.50;;;8.20;99.90;;;;;;5023111;28;20489;-77
2022/02/20 08:40:17;;;;;;;1.77;0.40;;;8.20;99.90;;;;;;5020833;28;20494;-77
2022/02/20 08:42:44;;;;;;;1.38;0.57;;;8.30;99.90;;;;;;5024533;28;20034;-78
2022/02/20 08:45:10;;;;;;;1.45;0.60;;;8.30;99.90;;;;;;5031094;28;20524;-78
2022/02/20 08:47:37;;;;;;;2.78;0.82;;;8.40;99.90;;;;;;5026563;28;20036;-77
2022/02/20 08:50:04;;;;;;;3.38;1.00;;;8.50;99.90;;;;;;5033554;28;20026;-77
2022/02/20 08:52:30;;;;;;;1.20;1.02;;;8.60;99.90;;;;;;5035505;28;20575;-78
2022/02/20 08:54:55;;;;;;;2.58;0.60;;;8.70;99.90;;;;;;5025982;28;20033;-78
2022/02/20 08:57:21;;;;;;;1.88;0.60;;;8.80;99.90;;;;;;5028653;28;20489;-79
2022/02/20 08:59:46;;;;;;;1.63;0.50;;;8.80;99.90;;;;;;5026712;28;20022;-77
2022/02/20 09:02:13;;;;;;;2.05;0.68;;;8.80;99.90;;;;;;5030370;28;20037;-76
2022/02/20 09:04:41;;;;;;;10.27;1.48;;;9.20;99.90;;;;;;5028103;28;20021;-77
2022/02/20 09:07:07;;;;;;;1.17;0.38;;;9.20;99.90;;;;;;5028258;28;20026;-76
2022/02/20 09:09:33;;;;;;;1.00;0.70;;;9.10;99.90;;;;;;5031058;28;20025;-77
2022/02/20 09:11:59;;;;;;;4.13;0.70;;;8.90;99.90;;;;;;5027324;28;20030;-77
2022/02/20 09:14:25;;;;;;;0.88;0.30;;;8.90;99.90;;;;;;5023694;28;20020;-77
2022/02/20 09:16:50;;;;;;;1.05;0.40;;;8.90;99.90;;;;;;5030581;28;20029;-77
2022/02/20 09:19:16;;;;;;;1.38;0.60;;;8.90;99.90;;;;;;5033961;28;20061;-77
2022/02/20 09:21:42;;;;;;;1.05;0.43;;;9.10;99.90;;;;;;5030565;28;20037;-76
2022/02/20 09:24:11;;;;;;;0.90;0.40;;;9.30;99.90;;;;;;5024601;28;20025;-77
2022/02/20 09:26:36;;;;;;;1.65;0.88;;;9.20;99.90;;;;;;5029391;28;20018;-76
2022/02/20 09:29:02;;;;;;;1.00;0.40;;;9.30;99.90;;;;;;5023486;28;20032;-76
2022/02/20 09:31:28;;;;;;;2.08;0.52;;;9.50;99.90;;;;;;5021862;28;20489;-80
2022/02/20 09:33:54;;;;;;;0.98;0.50;;;9.40;99.90;;;;;;5022554;28;20030;-76
2022/02/20 09:36:19;;;;;;;0.85;0.45;;;9.40;99.90;;;;;;5024510;28;20453;-76
2022/02/20 09:38:45;;;;;;;0.52;0.45;;;9.30;99.90;;;;;;5022747;28;20104;-77
2022/02/20 09:41:12;;;;;;;1.50;0.55;;;9.40;99.90;;;;;;5021870;28;20032;-76
2022/02/20 09:43:39;;;;;;;2.38;0.55;;;9.40;99.90;;;;;;5040311;28;20020;-80
2022/02/20 09:46:06;;;;;;;0.68;0.30;;;9.40;99.90;;;;;;5038793;28;20021;-78
2022/02/20 09:48:32;;;;;;;1.85;0.60;;;9.50;99.90;;;;;;5032392;28;20020;-79
2022/02/20 09:50:59;;;;;;;0.55;0.35;;;9.50;99.90;;;;;;5025625;28;20036;-81
2022/02/20 09:53:26;;;;;;;2.58;1.02;;;9.40;99.90;;;;;;5029777;28;20036;-79
2022/02/20 09:55:52;;;;;;;0.60;0.30;;;9.30;99.90;;;;;;5027092;28;20078;-81
2022/02/20 09:58:18;;;;;;;2.22;0.45;;;9.30;99.90;;;;;;5020329;28;20083;-80
2022/02/20 10:01:02;;;;;;;2.75;0.50;;;9.30;99.90;;;;;;5022112;28;20022;-79
2022/02/20 10:03:33;;;;;;;0.43;0.30;;;9.30;99.90;;;;;;5026482;28;20108;-81
2022/02/20 10:06:01;;;;;;;0.82;0.60;;;9.50;99.90;;;;;;5038553;28;20029;-79
2022/02/20 10:08:39;;;;;;;0.63;0.40;;;9.60;99.90;;;;;;5039202;28;20026;-80
2022/02/20 10:11:12;;;;;;;0.35;0.30;;;9.70;99.90;;;;;;5052375;28;20565;-81
2022/02/20 10:13:38;;;;;;;2.60;0.73;;;9.70;99.90;;;;;;5047803;28;20025;-81
2022/02/20 10:16:20;;;;;;;1.23;0.38;;;9.70;99.90;;;;;;5042046;28;20040;-81
2022/02/20 10:18:46;;;;;;;0.40;0.40;;;9.70;99.90;;;;;;5044415;28;20024;-82
2022/02/20 10:21:26;;;;;;;2.25;0.40;;;9.60;99.90;;;;;;5040323;28;20032;-80
2022/02/20 10:23:53;;;;;;;1.42;0.30;;;9.70;99.90;;;;;;5043481;28;20556;-80
2022/02/20 10:26:21;;;;;;;1.17;0.40;;;9.70;99.90;;;;;;5039890;28;20040;-80
2022/02/20 10:29:09;;;;;;;0.50;0.40;;;9.90;99.90;;;;;;5041432;28;20021;-80
2022/02/20 10:31:38;;;;;;;1.77;0.57;;;9.80;99.90;;;;;;5044278;28;20025;-80
2022/02/20 10:34:06;;;;;;;0.95;0.45;;;9.90;99.90;;;;;;5039800;28;20026;-80
2022/02/20 10:37:04;;;;;;;2.25;0.60;;;9.90;99.90;;;;;;5038150;28;20028;-80
2022/02/20 10:39:39;;;;;;;1.52;0.45;;;10.10;99.90;;;;;;5035819;28;20032;-81
2022/02/20 10:42:18;;;;;;;1.02;0.40;;;10.00;99.90;;;;;;5041189;28;20036;-81
2022/02/20 10:45:01;;;;;;;0.50;0.40;;;10.20;99.90;;;;;;5041456;28;20020;-81
2022/02/20 10:47:30;;;;;;;0.50;0.40;;;10.20;99.90;;;;;;5036669;28;20024;-81
2022/02/20 10:50:15;;;;;;;0.50;0.40;;;10.40;99.90;;;;;;5040833;28;20025;-81
2022/02/20 10:52:40;;;;;;;0.40;0.40;;;10.60;99.90;;;;;;5040293;28;20404;-81
2022/02/20 10:55:11;;;;;;;1.48;0.40;;;10.60;99.90;;;;;;5039927;28;20111;-82
2022/02/20 10:57:39;;;;;;;0.90;0.45;;;10.60;99.90;;;;;;5045062;28;20092;-80
2022/02/20 11:00:09;;;;;;;0.32;0.30;;;10.60;99.90;;;;;;5032133;28;20061;-82
2022/02/20 11:02:34;;;;;;;0.40;0.40;;;10.70;99.90;;;;;;5030477;28;20036;-81
2022/02/20 11:05:02;;;;;;;1.13;0.50;;;10.70;99.90;;;;;;5038399;28;20014;-81
2022/02/20 11:07:28;;;;;;;0.30;0.30;;;10.60;99.90;;;;;;5038495;28;20485;-81
2022/02/20 11:09:54;;;;;;;1.00;0.40;;;10.50;99.90;;;;;;5044650;28;20029;-81
2022/02/20 11:12:21;;;;;;;0.52;0.30;;;10.50;99.90;;;;;;5040496;28;20021;-80
2022/02/20 11:14:49;;;;;;;0.50;0.30;;;10.70;99.90;;;;;;5033069;28;20045;-83
2022/02/20 11:17:15;;;;;;;0.35;0.30;;;10.60;99.90;;;;;;5062699;28;20101;-81
2022/02/20 11:19:42;;;;;;;0.60;0.52;;;10.60;99.90;;;;;;5059557;28;20032;-80
2022/02/20 11:22:09;;;;;;;1.65;0.55;;;10.60;99.90;;;;;;5071739;28;20067;-80
2022/02/20 11:24:37;;;;;;;1.65;0.43;;;10.50;99.90;;;;;;5056183;28;20085;-81
2022/02/20 11:27:04;;;;;;;0.82;0.82;;;10.70;99.90;;;;;;5054840;28;20049;-82
2022/02/20 11:29:30;;;;;;;1.08;0.40;;;10.80;99.90;;;;;;5039850;28;20026;-82
2022/02/20 11:31:57;;;;;;;0.70;0.60;;;10.80;99.90;;;;;;5043817;28;20028;-81
2022/02/20 11:34:24;;;;;;;0.40;0.30;;;10.60;99.90;;;;;;5044970;28;20017;-81
2022/02/20 11:36:55;;;;;;;1.30;0.30;;;10.60;99.90;;;;;;5044553;28;20044;-81
2022/02/20 11:39:22;;;;;;;0.50;0.45;;;10.60;99.90;;;;;;5053429;28;20045;-81
2022/02/20 11:42:10;;;;;;;0.85;0.40;;;10.70;99.90;;;;;;5035098;28;20018;-79
2022/02/20 11:44:53;;;;;;;0.88;0.43;;;10.70;99.90;;;;;;5042381;28;20017;-81
2022/02/20 11:47:34;;;;;;;0.20;0.20;;;10.60;99.90;;;;;;5040900;28;20486;-82
2022/02/20 11:50:22;;;;;;;0.30;0.30;;;10.50;99.90;;;;;;5046850;28;20022;-84
2022/02/20 11:52:53;;;;;;;1.33;0.65;;;10.40;99.90;;;;;;5034010;28;20028;-82
2022/02/20 11:55:41;;;;;;;0.80;0.50;;;10.40;99.90;;;;;;5051351;28;20555;-83
2022/02/20 11:58:21;;;;;;;3.05;0.85;;;10.50;99.90;;;;;;5044398;28;20033;-82
2022/02/20 12:00:55;;;;;;;0.60;0.30;;;10.50;99.90;;;;;;5032066;28;20103;-82
2022/02/20 12:03:29;;;;;;;0.80;0.40;;;10.60;99.90;;;;;;5041711;28;20023;-81
2022/02/20 12:06:18;;;;;;;2.17;0.47;;;10.60;99.90;;;;;;5043759;28;20021;-81
2022/02/20 12:08:48;;;;;;;1.50;0.30;;;10.60;99.90;;;;;;5045734;28;20032;-83
2022/02/20 12:11:19;;;;;;;0.47;0.47;;;10.60;99.90;;;;;;5053067;28;20028;-81
2022/02/20 12:13:50;;;;;;;0.52;0.30;;;10.60;99.90;;;;;;5037588;28;20028;-79
2022/02/20 12:16:19;;;;;;;;;;;10.60;99.90;;;;;;5049223;28;20068;-81
2022/02/20 12:19:04;;;;;;;0.93;0.40;;;10.60;99.90;;;;;;5055829;28;19896;-82
2022/02/20 12:21:33;;;;;;;0.40;0.30;;;10.60;99.90;;;;;;5040562;28;20032;-81
2022/02/20 12:24:15;;;;;;;1.05;0.40;;;10.60;99.90;;;;;;5050268;28;20025;-81
2022/02/20 12:26:47;;;;;;;1.65;0.40;;;10.60;99.90;;;;;;5038607;28;20497;-81
2022/02/20 12:29:15;;;;;;;0.85;0.30;;;10.70;99.90;;;;;;5050276;28;20066;-80
2022/02/20 12:32:11;;;;;;;0.70;0.38;;;10.70;99.90;;;;;;5039073;28;20075;-81
2022/02/20 12:34:47;;;;;;;3.40;0.50;;;10.70;99.90;;;;;;5038931;28;20171;-82
2022/02/20 12:37:27;;;;;;;1.13;0.50;;;10.60;99.90;;;;;;5036434;28;20392;-81
2022/02/20 12:40:02;;;;;;;0.85;0.63;;;10.70;99.90;;;;;;5045455;28;20552;-81
2022/02/20 12:42:30;;;;;;;1.23;0.43;;;10.70;99.90;;;;;;5038734;28;20054;-81
2022/02/20 12:45:07;;;;;;;0.40;0.40;;;10.70;99.90;;;;;;5041606;28;20031;-81
2022/02/20 12:47:36;;;;;;;0.73;0.30;;;10.80;99.90;;;;;;5039972;28;20413;-81
2022/02/20 12:50:02;;;;;;;0.60;0.30;;;10.80;99.90;;;;;;5039822;28;20131;-81
2022/02/20 12:52:36;;;;;;;1.98;0.50;;;10.90;99.90;;;;;;5043576;28;20016;-81
2022/02/20 12:55:03;;;;;;;0.38;0.30;;;10.90;99.90;;;;;;5039887;28;20060;-82
2022/02/20 12:57:36;;;;;;;0.52;0.28;;;11.00;99.90;;;;;;5044442;28;20481;-81